createdAt,value
2022-09-21T00:01:20.861Z,35.28
2022-09-21T00:03:54.544Z,36.25
2022-09-21T00:06:24.212Z,36.50
2022-09-21T00:08:53.175Z,35.22
2022-09-21T00:11:23.984Z,37.05
2022-09-21T00:13:55.450Z,36.08
2022-09-21T00:16:24.414Z,35.75
2022-09-21T00:18:54.816Z,35.38
2022-09-21T00:21:23.208Z,34.83
2022-09-21T00:23:51.518Z,35.92
2022-09-21T00:26:21.749Z,35.08
2022-09-21T00:28:55.402Z,34.63
2022-09-21T00:31:24.279Z,35.00
2022-09-21T00:33:54.413Z,35.53
2022-09-21T00:36:24.477Z,35.53
2022-09-21T00:38:54.635Z,34.05
2022-09-21T00:41:23.486Z,34.10
2022-09-21T00:44:24.821Z,33.72
2022-09-21T00:46:55.035Z,36.05
2022-09-21T00:49:26.001Z,34.72
2022-09-21T00:51:55.063Z,34.85
2022-09-21T00:54:28.925Z,35.38
2022-09-21T00:56:59.907Z,35.00
2022-09-21T00:59:30.241Z,33.20
2022-09-21T01:02:00.347Z,33.83
2022-09-21T01:04:30.703Z,35.95
2022-09-21T01:07:02.576Z,34.72
2022-09-21T01:09:30.919Z,35.47
2022-09-21T01:12:12.230Z,35.80
2022-09-21T01:14:59.032Z,36.95
2022-09-21T01:17:37.736Z,35.60
2022-09-21T01:20:44.528Z,36.60
2022-09-21T01:23:25.088Z,36.55
2022-09-21T01:26:08.209Z,36.45
2022-09-21T01:29:03.567Z,36.95
2022-09-21T01:31:37.637Z,36.25
2022-09-21T01:34:11.926Z,35.30
2022-09-21T01:36:44.166Z,34.65
2022-09-21T01:39:15.106Z,35.25
2022-09-21T01:41:49.053Z,36.58
2022-09-21T01:44:21.984Z,35.55
2022-09-21T01:46:51.265Z,35.53
2022-09-21T01:49:24.205Z,35.60
2022-09-21T01:51:58.668Z,35.17
2022-09-21T01:54:33.858Z,36.50
2022-09-21T01:57:08.618Z,36.55
2022-09-21T01:59:46.404Z,36.22
2022-09-21T02:02:19.818Z,37.03
2022-09-21T02:04:48.235Z,35.20
2022-09-21T02:07:18.117Z,34.75
2022-09-21T02:09:47.572Z,34.60
2022-09-21T02:12:19.197Z,35.92
2022-09-21T02:14:49.863Z,35.15
2022-09-21T02:17:32.303Z,33.20
2022-09-21T02:20:17.848Z,33.10
2022-09-21T02:22:58.739Z,34.03
2022-09-21T02:25:37.119Z,32.95
2022-09-21T02:28:13.598Z,34.08
2022-09-21T02:30:48.715Z,33.80
2022-09-21T02:33:23.922Z,31.83
2022-09-21T02:35:57.537Z,32.70
2022-09-21T02:38:32.807Z,33.40
2022-09-21T02:41:08.382Z,32.53
2022-09-21T02:43:41.111Z,34.42
2022-09-21T02:46:18.696Z,34.65
2022-09-21T02:48:50.875Z,34.17
2022-09-21T02:51:24.112Z,34.33
2022-09-21T02:53:54.935Z,32.88
2022-09-21T02:56:23.876Z,33.45
2022-09-21T02:58:56.840Z,32.70
2022-09-21T03:01:27.160Z,33.05
2022-09-21T03:03:55.223Z,34.20
2022-09-21T03:06:23.375Z,34.28
2022-09-21T03:08:51.413Z,34.47
2022-09-21T03:11:20.079Z,33.38
2022-09-21T03:13:49.165Z,32.55
2022-09-21T03:16:19.454Z,33.53
2022-09-21T03:18:49.194Z,34.05
2022-09-21T03:21:17.281Z,35.08
2022-09-21T03:23:45.435Z,34.45
2022-09-21T03:26:13.443Z,33.83
2022-09-21T03:28:41.448Z,32.92
2022-09-21T03:31:09.707Z,34.28
2022-09-21T03:33:37.759Z,33.63
2022-09-21T03:36:07.673Z,34.33
2022-09-21T03:38:36.473Z,33.65
2022-09-21T03:41:04.905Z,34.88
2022-09-21T03:43:33.120Z,35.25
2022-09-21T03:46:01.510Z,35.22
2022-09-21T03:48:29.648Z,33.05
2022-09-21T03:50:58.762Z,34.13
2022-09-21T03:53:28.128Z,32.65
2022-09-21T03:55:56.109Z,33.30
2022-09-21T03:58:24.128Z,32.92
2022-09-21T04:00:52.829Z,33.65
2022-09-21T04:03:20.739Z,32.45
2022-09-21T04:05:49.571Z,34.80
2022-09-21T04:08:17.515Z,34.83
2022-09-21T04:10:47.274Z,33.00
2022-09-21T04:13:15.316Z,33.08
2022-09-21T04:15:43.268Z,34.20
2022-09-21T04:18:12.089Z,34.97
2022-09-21T04:20:41.493Z,33.33
2022-09-21T04:23:10.156Z,33.10
2022-09-21T04:25:38.387Z,32.67
2022-09-21T04:28:07.874Z,31.25
2022-09-21T04:30:37.918Z,31.65
2022-09-21T04:33:06.245Z,32.60
2022-09-21T04:35:34.277Z,32.97
2022-09-21T04:38:02.202Z,31.45
2022-09-21T04:40:31.051Z,32.00
2022-09-21T04:42:59.288Z,29.77
2022-09-21T04:45:28.847Z,29.65
2022-09-21T04:47:57.429Z,30.05
2022-09-21T04:50:27.250Z,30.17
2022-09-21T04:52:56.602Z,30.85
2022-09-21T04:55:24.713Z,28.98
2022-09-21T04:57:52.769Z,28.42
2022-09-21T05:00:20.823Z,28.60
2022-09-21T05:02:51.683Z,28.00
2022-09-21T05:05:20.058Z,28.95
2022-09-21T05:07:48.178Z,28.48
2022-09-21T05:10:15.424Z,28.17
2022-09-21T05:12:43.931Z,28.17
2022-09-21T05:15:12.339Z,28.15
2022-09-21T05:17:42.013Z,27.40
2022-09-21T05:20:12.688Z,29.67
2022-09-21T05:22:40.819Z,29.10
2022-09-21T05:25:10.416Z,29.00
2022-09-21T05:27:38.458Z,27.63
2022-09-21T05:30:10.009Z,28.77
2022-09-21T05:32:46.523Z,28.58
2022-09-21T05:35:26.650Z,30.20
2022-09-21T05:37:59.720Z,29.33
2022-09-21T05:40:28.722Z,27.00
2022-09-21T05:42:57.525Z,29.30
2022-09-21T05:45:28.855Z,29.08
2022-09-21T05:48:07.947Z,28.95
2022-09-21T05:50:45.109Z,28.25
2022-09-21T05:53:49.081Z,28.60
2022-09-21T05:56:32.081Z,28.85
2022-09-21T05:59:12.491Z,28.15
2022-09-21T06:01:57.754Z,27.58
2022-09-21T06:04:26.452Z,27.45
2022-09-21T06:06:56.009Z,28.60
2022-09-21T06:09:25.998Z,27.17
2022-09-21T06:11:54.132Z,27.83
2022-09-21T06:14:25.564Z,27.33
2022-09-21T06:16:54.229Z,28.42
2022-09-21T06:19:22.524Z,26.48
2022-09-21T06:21:50.491Z,26.58
2022-09-21T06:24:20.030Z,27.95
2022-09-21T06:26:48.237Z,27.27
2022-09-21T06:29:18.792Z,26.70
2022-09-21T06:31:46.751Z,28.25
2022-09-21T06:34:14.927Z,26.85
2022-09-21T06:36:45.618Z,27.88
2022-09-21T06:39:13.921Z,29.83
2022-09-21T06:41:43.600Z,29.63
2022-09-21T06:44:11.638Z,27.25
2022-09-21T06:46:39.872Z,28.50
2022-09-21T06:49:08.012Z,28.30
2022-09-21T06:51:36.400Z,29.90
2022-09-21T06:54:04.549Z,27.80
2022-09-21T06:56:33.185Z,27.02
2022-09-21T06:59:02.789Z,28.05
2022-09-21T07:01:30.864Z,28.02
2022-09-21T07:03:58.982Z,28.50
2022-09-21T07:06:27.416Z,27.80
2022-09-21T07:11:43.640Z,28.50
2022-09-21T07:14:13.764Z,28.90
2022-09-21T07:16:43.472Z,28.38
2022-09-21T07:19:12.175Z,26.60
2022-09-21T07:21:40.495Z,25.73
2022-09-21T07:24:12.251Z,24.23
2022-09-21T07:26:41.169Z,24.20
2022-09-21T07:29:09.291Z,25.10
2022-09-21T07:31:39.164Z,22.38
2022-09-21T07:34:07.348Z,22.75
2022-09-21T07:36:35.419Z,24.10
2022-09-21T07:39:03.734Z,22.27
2022-09-21T07:41:31.840Z,20.88
2022-09-21T07:44:00.381Z,22.08
2022-09-21T07:46:31.155Z,21.55
2022-09-21T07:49:00.626Z,19.80
2022-09-21T07:51:28.701Z,18.88
2022-09-21T07:54:01.654Z,17.15
2022-09-21T07:56:29.743Z,18.35
2022-09-21T07:59:06.232Z,18.10
2022-09-21T08:01:41.404Z,17.77
2022-09-21T08:04:12.210Z,17.05
2022-09-21T08:06:41.832Z,14.52
2022-09-21T08:09:10.141Z,14.57
2022-09-21T08:11:48.763Z,12.57
2022-09-21T08:14:23.846Z,12.85
2022-09-21T08:16:54.241Z,12.10
2022-09-21T08:19:25.988Z,18.80
2022-09-21T08:21:57.854Z,15.25
2022-09-21T08:24:29.250Z,13.32
2022-09-21T08:26:57.797Z,13.88
2022-09-21T08:29:26.385Z,11.40
2022-09-21T08:31:54.914Z,9.60
2022-09-21T08:34:24.725Z,11.20
2022-09-21T08:36:55.780Z,11.07
2022-09-21T08:39:24.764Z,9.70
2022-09-21T08:42:11.780Z,10.45
2022-09-21T08:44:44.465Z,9.38
2022-09-21T08:47:16.420Z,11.48
2022-09-21T08:49:50.713Z,11.05
2022-09-21T08:52:21.484Z,7.97
2022-09-21T08:54:56.439Z,8.43
2022-09-21T08:57:29.857Z,5.70
2022-09-21T08:59:58.672Z,7.63
2022-09-21T09:03:07.189Z,9.20
2022-09-21T09:05:45.438Z,7.45
2022-09-21T09:08:39.811Z,5.50
2022-09-21T09:11:23.922Z,4.53
2022-09-21T09:14:15.275Z,5.40
2022-09-21T09:16:52.842Z,5.40
2022-09-21T09:19:25.435Z,6.13
2022-09-21T09:21:56.608Z,6.07
2022-09-21T09:24:34.250Z,6.03
2022-09-21T09:27:05.480Z,5.43
2022-09-21T09:29:43.168Z,5.43
2022-09-21T09:32:15.704Z,4.20
2022-09-21T09:34:46.923Z,7.95
2022-09-21T09:37:18.406Z,3.17
2022-09-21T09:39:52.534Z,6.47
2022-09-21T09:42:39.143Z,7.72
2022-09-21T09:45:33.084Z,8.45
2022-09-21T09:48:15.871Z,6.78
2022-09-21T09:50:44.578Z,8.38
2022-09-21T09:53:17.681Z,4.60
2022-09-21T09:55:48.979Z,6.82
2022-09-21T09:58:20.433Z,5.70
2022-09-21T10:00:51.971Z,5.15
2022-09-21T10:03:21.666Z,7.47
2022-09-21T10:05:50.631Z,7.07
2022-09-21T10:08:43.262Z,5.47
2022-09-21T10:11:14.616Z,4.35
2022-09-21T10:13:44.766Z,4.90
2022-09-21T10:16:20.280Z,3.97
2022-09-21T10:18:51.112Z,3.22
2022-09-21T10:21:22.374Z,4.97
2022-09-21T10:23:54.215Z,5.97
2022-09-21T10:26:23.193Z,6.00
2022-09-21T10:28:59.856Z,3.63
2022-09-21T10:31:29.957Z,4.60
2022-09-21T10:34:13.686Z,4.25
2022-09-21T10:36:42.570Z,6.60
2022-09-21T10:39:23.953Z,3.63
2022-09-21T10:41:54.338Z,5.65
2022-09-21T10:44:27.461Z,4.90
2022-09-21T10:49:30.364Z,4.38
2022-09-21T10:52:00.260Z,3.55
2022-09-21T10:54:34.613Z,4.00
2022-09-21T10:57:08.695Z,3.28
2022-09-21T10:59:38.221Z,4.82
2022-09-21T11:02:35.587Z,4.85
2022-09-21T11:05:10.837Z,1.30
2022-09-21T11:07:49.186Z,3.58
2022-09-21T11:10:24.707Z,4.72
2022-09-21T11:13:07.056Z,3.75
2022-09-21T11:15:46.559Z,4.32
2022-09-21T11:18:21.407Z,3.03
2022-09-21T11:20:54.027Z,4.47
2022-09-21T11:23:34.887Z,3.55
2022-09-21T11:26:13.837Z,2.30
2022-09-21T11:28:47.860Z,5.93
2022-09-21T11:31:38.181Z,6.05
2022-09-21T11:34:45.763Z,4.40
2022-09-21T11:37:24.534Z,5.00
2022-09-21T11:40:04.500Z,3.33
2022-09-21T11:42:50.138Z,3.47
2022-09-21T11:45:34.288Z,3.88
2022-09-21T11:48:14.388Z,3.90
2022-09-21T11:50:52.772Z,3.97
2022-09-21T11:53:34.879Z,5.78
2022-09-21T11:56:15.593Z,5.72
2022-09-21T11:58:53.210Z,4.65
2022-09-21T12:01:45.457Z,5.32
2022-09-21T12:04:32.928Z,3.72
2022-09-21T12:07:15.300Z,4.18
2022-09-21T12:10:12.433Z,3.70
2022-09-21T12:12:48.130Z,4.78
2022-09-21T12:15:22.726Z,4.30
2022-09-21T12:17:58.870Z,4.90
2022-09-21T12:20:36.352Z,5.03
2022-09-21T12:23:10.096Z,4.03
2022-09-21T12:25:41.739Z,4.00
2022-09-21T12:28:16.094Z,6.57
2022-09-21T12:30:53.897Z,5.45
2022-09-21T12:33:29.196Z,3.65
2022-09-21T12:36:03.487Z,3.92
2022-09-21T12:38:36.358Z,4.57
2022-09-21T12:41:11.630Z,5.20
2022-09-21T12:43:44.340Z,4.18
2022-09-21T12:46:18.632Z,3.67
2022-09-21T12:48:46.790Z,3.08
2022-09-21T12:51:19.934Z,3.08
2022-09-21T12:53:51.375Z,4.70
2022-09-21T12:56:26.523Z,4.03
2022-09-21T12:59:20.889Z,3.45
2022-09-21T13:01:57.441Z,5.10
2022-09-21T13:04:43.263Z,5.75
2022-09-21T13:07:37.439Z,4.97
2022-09-21T13:10:16.553Z,2.70
2022-09-21T13:12:47.311Z,3.15
2022-09-21T13:15:21.887Z,3.97
2022-09-21T13:18:00.371Z,5.85
2022-09-21T13:20:34.486Z,3.50
2022-09-21T13:23:03.070Z,6.30
2022-09-21T13:25:34.737Z,5.15
2022-09-21T13:28:09.202Z,3.17
2022-09-21T13:30:40.617Z,4.32
2022-09-21T13:33:47.307Z,5.28
2022-09-21T13:36:35.332Z,6.70
2022-09-21T13:39:21.539Z,5.72
2022-09-21T13:42:02.864Z,5.85
2022-09-21T13:44:43.545Z,3.90
2022-09-21T13:47:14.691Z,2.30
2022-09-21T13:49:54.939Z,3.92
2022-09-21T13:52:40.498Z,4.43
2022-09-21T13:55:28.226Z,2.38
2022-09-21T13:57:58.896Z,3.08
2022-09-21T14:00:41.158Z,3.65
2022-09-21T14:03:23.506Z,4.00
2022-09-21T14:05:54.279Z,2.63
2022-09-21T14:08:28.221Z,4.75
2022-09-21T14:10:59.823Z,4.55
2022-09-21T14:13:32.358Z,4.07
2022-09-21T14:16:44.619Z,3.72
2022-09-21T14:19:46.038Z,2.63
2022-09-21T14:22:43.533Z,3.67
2022-09-21T14:25:29.623Z,4.50
2022-09-21T14:28:05.933Z,4.63
2022-09-21T14:30:36.878Z,6.85
2022-09-21T14:33:25.464Z,5.60
2022-09-21T14:35:55.980Z,4.00
2022-09-21T14:38:27.167Z,5.25
2022-09-21T14:41:02.695Z,4.68
2022-09-21T14:43:35.374Z,4.93
2022-09-21T14:46:25.653Z,5.03
2022-09-21T14:49:06.925Z,2.20
2022-09-21T14:51:45.713Z,3.97
2022-09-21T14:54:29.570Z,3.40
2022-09-21T14:57:15.210Z,3.60
2022-09-21T15:00:01.120Z,5.05
2022-09-21T15:02:32.318Z,6.43
2022-09-21T15:05:13.503Z,3.03
2022-09-21T15:08:05.761Z,3.80
2022-09-21T15:10:56.040Z,3.25
2022-09-21T15:13:41.641Z,4.15
2022-09-21T15:16:21.903Z,5.20
2022-09-21T15:18:51.844Z,6.22
2022-09-21T15:21:24.256Z,7.45
2022-09-21T15:23:53.222Z,3.83
2022-09-21T15:26:26.478Z,5.53
2022-09-21T15:29:09.393Z,3.25
2022-09-21T15:31:40.399Z,4.75
2022-09-21T15:34:10.963Z,4.40
2022-09-21T15:36:41.671Z,3.80
2022-09-21T15:39:23.095Z,5.97
2022-09-21T15:42:17.985Z,6.07
2022-09-21T15:44:50.610Z,5.70
2022-09-21T15:47:22.033Z,5.65
2022-09-21T15:49:51.020Z,2.63
2022-09-21T15:52:29.176Z,3.55
2022-09-21T15:55:00.445Z,2.17
2022-09-21T15:57:39.362Z,4.88
2022-09-21T16:00:23.420Z,2.15
2022-09-21T16:03:04.548Z,3.10
2022-09-21T16:05:44.379Z,2.75
2022-09-21T16:08:39.643Z,2.70
2022-09-21T16:11:37.829Z,3.30
2022-09-21T16:14:30.370Z,4.47
2022-09-21T16:17:21.197Z,4.55
2022-09-21T16:20:19.883Z,6.22
2022-09-21T16:22:49.999Z,3.83
2022-09-21T16:25:25.718Z,6.28
2022-09-21T16:27:56.154Z,3.97
2022-09-21T16:30:46.247Z,3.75
2022-09-21T16:33:44.530Z,2.45
2022-09-21T16:36:47.066Z,2.85
2022-09-21T16:39:17.432Z,3.88
2022-09-21T16:42:03.743Z,2.42
2022-09-21T16:44:44.577Z,6.05
2022-09-21T16:47:17.895Z,2.05
2022-09-21T16:49:51.577Z,4.10
2022-09-21T16:52:22.247Z,3.90
2022-09-21T16:54:52.077Z,3.47
2022-09-21T16:57:23.311Z,1.95
2022-09-21T16:59:51.870Z,2.53
2022-09-21T17:02:20.324Z,2.10
2022-09-21T17:04:55.407Z,4.20
2022-09-21T17:07:26.727Z,4.38
2022-09-21T17:09:57.522Z,2.78
2022-09-21T17:12:27.844Z,2.40
2022-09-21T17:14:55.950Z,4.05
2022-09-21T17:17:28.226Z,5.00
2022-09-21T17:19:57.824Z,4.32
2022-09-21T17:22:26.321Z,2.80
2022-09-21T17:24:55.081Z,3.47
2022-09-21T17:27:25.510Z,4.90
2022-09-21T17:29:57.546Z,5.95
2022-09-21T17:32:26.389Z,3.95
2022-09-21T17:35:02.149Z,3.72
2022-09-21T17:37:30.255Z,4.32
2022-09-21T17:39:59.633Z,4.63
2022-09-21T17:42:28.558Z,3.78
2022-09-21T17:45:12.489Z,3.08
2022-09-21T17:47:46.681Z,2.78
2022-09-21T17:50:26.381Z,4.15
2022-09-21T17:53:15.497Z,2.22
2022-09-21T17:55:49.421Z,5.25
2022-09-21T17:58:41.513Z,4.28
2022-09-21T18:01:18.013Z,6.32
2022-09-21T18:03:47.850Z,4.50
2022-09-21T18:06:18.242Z,3.95
2022-09-21T18:08:46.821Z,4.93
2022-09-21T18:11:39.166Z,12.10
2022-09-21T18:14:13.944Z,7.22
2022-09-21T18:16:53.409Z,7.53
2022-09-21T18:19:35.378Z,7.63
2022-09-21T18:22:16.350Z,7.97
2022-09-21T18:24:45.245Z,20.33
2022-09-21T18:27:14.018Z,19.50
2022-09-21T18:29:42.710Z,28.10
2022-09-21T18:32:34.749Z,29.33
2022-09-21T18:35:28.785Z,19.05
2022-09-21T18:38:12.647Z,23.25
2022-09-21T18:40:53.253Z,31.55
2022-09-21T18:43:33.841Z,31.33
2022-09-21T18:46:04.918Z,36.67
2022-09-21T18:48:51.888Z,34.90
2022-09-21T18:51:28.747Z,36.15
2022-09-21T18:54:00.448Z,32.58
2022-09-21T18:56:33.423Z,34.53
2022-09-21T18:59:03.017Z,36.38
2022-09-21T19:01:34.046Z,36.17
2022-09-21T19:04:03.124Z,35.95
2022-09-21T19:06:42.703Z,38.10
2022-09-21T19:09:36.484Z,38.67
2022-09-21T19:12:14.873Z,36.88
2022-09-21T19:14:53.324Z,38.05
2022-09-21T19:17:35.647Z,40.55
2022-09-21T19:20:26.600Z,38.28
2022-09-21T19:23:04.956Z,43.17
2022-09-21T19:25:44.700Z,40.75
2022-09-21T19:28:36.691Z,39.67
2022-09-21T19:31:11.549Z,38.22
2022-09-21T19:33:55.710Z,37.10
2022-09-21T19:36:26.326Z,37.60
2022-09-21T19:38:56.372Z,42.35
2022-09-21T19:41:50.817Z,44.92
2022-09-21T19:44:40.163Z,41.80
2022-09-21T19:47:16.748Z,40.30
2022-09-21T19:49:49.886Z,39.33
2022-09-21T19:52:19.873Z,38.40
2022-09-21T19:55:06.156Z,38.58
2022-09-21T19:57:54.202Z,40.13
2022-09-21T20:00:24.212Z,39.72
2022-09-21T20:03:03.712Z,39.95
2022-09-21T20:05:41.047Z,37.30
2022-09-21T20:08:18.219Z,36.40
2022-09-21T20:10:58.125Z,38.40
2022-09-21T20:13:42.094Z,38.45
2022-09-21T20:16:27.087Z,36.00
2022-09-21T20:19:03.764Z,33.50
2022-09-21T20:21:43.554Z,34.90
2022-09-21T20:24:23.463Z,35.40
2022-09-21T20:26:52.483Z,37.38
2022-09-21T20:29:22.361Z,35.35
2022-09-21T20:31:53.415Z,33.92
2022-09-21T20:34:21.627Z,35.15
2022-09-21T20:36:49.652Z,35.33
2022-09-21T20:39:17.610Z,34.38
2022-09-21T20:41:45.884Z,34.80
2022-09-21T20:44:15.696Z,35.15
2022-09-21T20:46:45.439Z,34.80
2022-09-21T20:49:15.260Z,33.92
2022-09-21T20:51:43.190Z,33.38
2022-09-21T20:54:11.642Z,35.15
2022-09-21T20:56:39.888Z,32.25
2022-09-21T20:59:07.984Z,32.63
2022-09-21T21:01:36.431Z,31.70
2022-09-21T21:04:05.991Z,31.38
2022-09-21T21:06:34.973Z,30.85
2022-09-21T21:09:03.291Z,32.45
2022-09-21T21:11:31.447Z,32.88
2022-09-21T21:14:02.436Z,32.97
2022-09-21T21:16:30.407Z,33.72
2022-09-21T21:18:58.584Z,33.08
2022-09-21T21:21:27.908Z,34.05
2022-09-21T21:24:13.218Z,33.97
2022-09-21T21:27:01.141Z,35.33
2022-09-21T21:29:29.503Z,32.83
2022-09-21T21:31:57.631Z,32.33
2022-09-21T21:34:25.733Z,32.85
2022-09-21T21:36:56.056Z,31.70
2022-09-21T21:39:24.037Z,32.53
2022-09-21T21:41:52.018Z,32.55
2022-09-21T21:44:20.165Z,32.88
2022-09-21T21:46:48.076Z,32.75
2022-09-21T21:49:16.284Z,32.92
2022-09-21T21:51:44.644Z,32.45
2022-09-21T21:54:15.026Z,32.53
2022-09-21T21:56:44.183Z,32.78
2022-09-21T21:59:17.455Z,32.30
2022-09-21T22:01:45.849Z,32.95
2022-09-21T22:04:14.308Z,31.77
2022-09-21T22:06:42.780Z,34.80
2022-09-21T22:09:16.383Z,32.50
2022-09-21T22:11:44.541Z,32.47
2022-09-21T22:14:12.805Z,32.17
2022-09-21T22:16:40.890Z,32.15
2022-09-21T22:19:09.701Z,32.17
2022-09-21T22:21:41.448Z,32.47
2022-09-21T22:24:10.594Z,34.33
2022-09-21T22:26:42.325Z,34.67
2022-09-21T22:29:11.735Z,32.90
2022-09-21T22:31:41.126Z,32.92
2022-09-21T22:34:09.773Z,33.47
2022-09-21T22:36:38.970Z,33.53
2022-09-21T22:39:08.399Z,32.92
2022-09-21T22:41:38.311Z,31.90
2022-09-21T22:44:08.548Z,30.90
2022-09-21T22:46:37.328Z,33.38
2022-09-21T22:49:05.727Z,32.22
2022-09-21T22:51:33.882Z,31.92
2022-09-21T22:54:02.278Z,31.38
2022-09-21T22:56:32.142Z,31.05
2022-09-21T22:59:02.699Z,30.83
2022-09-21T23:01:34.709Z,32.40
2022-09-21T23:04:05.106Z,32.55
2022-09-21T23:06:35.642Z,33.08
2022-09-21T23:09:05.957Z,32.63
2022-09-21T23:11:36.099Z,32.45
2022-09-21T23:14:05.071Z,31.90
2022-09-21T23:16:34.914Z,31.83
2022-09-21T23:19:03.803Z,32.22
2022-09-21T23:21:32.004Z,31.35
2022-09-21T23:24:02.112Z,31.88
2022-09-21T23:26:32.474Z,32.58
2022-09-21T23:29:01.884Z,29.73
2022-09-21T23:31:31.501Z,32.33
2022-09-21T23:34:05.356Z,30.65
2022-09-21T23:36:33.647Z,31.48
2022-09-21T23:39:01.785Z,32.05
2022-09-21T23:41:32.599Z,30.52
2022-09-21T23:44:00.851Z,30.13
2022-09-21T23:46:30.917Z,30.73
2022-09-21T23:49:00.816Z,30.60
2022-09-21T23:51:30.512Z,30.73
2022-09-21T23:54:00.003Z,29.75
2022-09-21T23:56:28.858Z,29.48
2022-09-21T23:58:57.166Z,29.95
